createdAt,value
2023-01-26T00:02:28.116Z,71.78
2023-01-26T00:04:55.747Z,84.70
2023-01-26T00:07:23.367Z,78.18
2023-01-26T00:09:51.085Z,69.97
2023-01-26T00:12:18.707Z,76.55
2023-01-26T00:14:52.784Z,79.07
2023-01-26T00:17:26.322Z,79.25
2023-01-26T00:19:58.608Z,83.50
2023-01-26T00:22:27.998Z,85.10
2023-01-26T00:24:56.422Z,79.22
2023-01-26T00:27:26.614Z,88.20
2023-01-26T00:29:57.379Z,87.60
2023-01-26T00:32:27.184Z,83.15
2023-01-26T00:34:55.059Z,87.53
2023-01-26T00:37:22.638Z,86.00
2023-01-26T00:39:51.679Z,87.60
2023-01-26T00:42:20.868Z,82.90
2023-01-26T00:44:48.629Z,89.07
2023-01-26T00:47:16.620Z,93.57
2023-01-26T00:49:47.182Z,84.82
2023-01-26T00:52:15.319Z,93.80
2023-01-26T00:54:47.676Z,88.38
2023-01-26T00:57:15.864Z,84.93
2023-01-26T00:59:43.658Z,84.03
2023-01-26T01:02:11.458Z,79.25
2023-01-26T01:07:08.842Z,91.78
2023-01-26T01:09:37.011Z,79.88
2023-01-26T01:12:05.029Z,77.53
2023-01-26T01:14:32.889Z,85.28
2023-01-26T01:17:00.531Z,82.88
2023-01-26T01:19:31.331Z,92.25
2023-01-26T01:21:59.262Z,84.50
2023-01-26T01:24:29.600Z,80.13
2023-01-26T01:26:57.327Z,84.55
2023-01-26T01:29:25.104Z,87.68
2023-01-26T01:31:52.945Z,83.55
2023-01-26T01:34:20.712Z,77.15
2023-01-26T01:36:50.699Z,92.03
2023-01-26T01:39:20.842Z,90.72
2023-01-26T01:41:48.463Z,85.10
2023-01-26T01:44:21.505Z,85.85
2023-01-26T01:46:54.209Z,76.60
2023-01-26T01:49:27.376Z,68.57
2023-01-26T01:52:06.114Z,66.35
2023-01-26T01:54:56.977Z,67.80
2023-01-26T01:57:29.464Z,73.15
2023-01-26T02:00:12.468Z,61.05
2023-01-26T02:03:06.015Z,64.95
2023-01-26T02:05:39.329Z,67.82
2023-01-26T02:08:10.073Z,45.47
2023-01-26T02:10:38.233Z,61.15
2023-01-26T02:13:09.609Z,64.60
2023-01-26T02:15:38.418Z,56.97
2023-01-26T02:18:06.219Z,88.15
2023-01-26T02:20:58.555Z,72.45
2023-01-26T02:23:55.585Z,80.72
2023-01-26T02:26:28.484Z,61.85
2023-01-26T02:28:56.899Z,70.20
2023-01-26T02:31:26.974Z,78.05
2023-01-26T02:33:56.599Z,54.17
2023-01-26T02:36:27.569Z,69.75
2023-01-26T02:39:25.345Z,77.50
2023-01-26T02:42:22.265Z,60.63
2023-01-26T02:44:50.453Z,80.82
2023-01-26T02:47:20.260Z,90.07
2023-01-26T02:49:50.830Z,62.92
2023-01-26T02:52:23.502Z,55.03
2023-01-26T02:55:19.801Z,55.88
2023-01-26T02:57:47.740Z,59.25
2023-01-26T03:00:18.784Z,58.72
2023-01-26T03:02:48.296Z,59.33
2023-01-26T03:05:15.977Z,61.80
2023-01-26T03:07:46.556Z,59.65
2023-01-26T03:10:16.725Z,57.58
2023-01-26T03:12:45.682Z,47.47
2023-01-26T03:15:33.163Z,50.38
2023-01-26T03:18:23.705Z,49.63
2023-01-26T03:21:09.936Z,53.50
2023-01-26T03:23:57.560Z,53.97
2023-01-26T03:26:45.665Z,60.25
2023-01-26T03:29:13.859Z,62.65
2023-01-26T03:31:43.388Z,65.20
2023-01-26T03:34:14.071Z,72.93
2023-01-26T03:36:45.678Z,69.35
2023-01-26T03:39:34.393Z,76.25
2023-01-26T03:42:21.581Z,73.18
2023-01-26T03:45:07.797Z,71.30
2023-01-26T03:48:09.814Z,65.35
2023-01-26T03:50:56.021Z,55.20
2023-01-26T03:53:43.323Z,66.35
2023-01-26T03:56:18.395Z,69.57
2023-01-26T03:59:08.053Z,55.47
2023-01-26T04:02:05.472Z,56.72
2023-01-26T04:04:52.919Z,60.67
2023-01-26T04:07:42.993Z,54.30
2023-01-26T04:10:11.393Z,58.25
2023-01-26T04:12:39.189Z,53.13
2023-01-26T04:15:33.095Z,63.63
2023-01-26T04:18:25.880Z,61.28
2023-01-26T04:21:13.621Z,59.78
2023-01-26T04:23:43.621Z,64.88
2023-01-26T04:26:11.632Z,67.93
2023-01-26T04:28:40.137Z,72.97
2023-01-26T04:31:08.079Z,67.22
2023-01-26T04:33:40.470Z,67.25
2023-01-26T04:36:10.111Z,77.78
2023-01-26T04:38:41.623Z,74.97
2023-01-26T04:41:09.685Z,64.45
2023-01-26T04:43:45.535Z,58.80
2023-01-26T04:46:14.128Z,65.45
2023-01-26T04:48:42.511Z,61.43
2023-01-26T04:51:13.987Z,64.57
2023-01-26T04:53:44.875Z,62.65
2023-01-26T04:56:22.597Z,69.05
2023-01-26T04:58:52.800Z,70.85
2023-01-26T05:01:21.734Z,74.00
2023-01-26T12:04:21.994Z,61.92
2023-01-26T12:07:00.190Z,48.85
2023-01-26T12:09:47.898Z,42.42
2023-01-26T12:12:38.274Z,38.13
2023-01-26T12:15:16.008Z,40.13
2023-01-26T12:17:58.953Z,44.20
2023-01-26T12:20:45.812Z,44.95
2023-01-26T12:23:19.552Z,43.30
2023-01-26T12:25:53.104Z,42.03
2023-01-26T12:28:42.127Z,50.65
2023-01-26T12:31:12.961Z,39.97
2023-01-26T12:33:41.186Z,41.40
2023-01-26T12:36:45.702Z,44.83
2023-01-26T12:39:20.691Z,42.28
2023-01-26T12:41:59.043Z,47.83
2023-01-26T12:44:35.438Z,40.00
2023-01-26T12:47:13.797Z,39.65
2023-01-26T12:50:02.416Z,36.38
2023-01-26T12:52:43.011Z,37.38
2023-01-26T12:55:20.099Z,39.90
2023-01-26T12:58:21.416Z,40.05
2023-01-26T13:01:41.644Z,48.00
2023-01-26T13:04:15.851Z,39.70
2023-01-26T13:07:02.889Z,45.17
2023-01-26T13:09:31.015Z,39.55
2023-01-26T13:12:00.418Z,40.42
2023-01-26T13:14:37.490Z,39.50
2023-01-26T13:17:17.515Z,36.80
2023-01-26T13:19:45.149Z,35.47
2023-01-26T13:22:18.885Z,31.08
2023-01-26T13:24:49.195Z,34.72
2023-01-26T13:27:43.835Z,39.30
2023-01-26T13:30:23.561Z,39.70
2023-01-26T13:32:52.586Z,36.95
2023-01-26T13:35:25.782Z,30.77
2023-01-26T13:37:59.412Z,29.45
2023-01-26T13:40:36.498Z,34.60
2023-01-26T13:43:24.600Z,54.97
2023-01-26T13:46:17.786Z,44.53
2023-01-26T13:48:53.763Z,46.70
2023-01-26T13:51:35.948Z,35.25
2023-01-26T13:58:33.951Z,43.45
2023-01-26T14:01:07.361Z,32.88
2023-01-26T14:03:34.956Z,43.13
2023-01-26T14:06:11.584Z,34.20
2023-01-26T14:08:39.739Z,38.50
2023-01-26T14:11:21.467Z,41.78
2023-01-26T14:13:57.521Z,36.75
2023-01-26T14:16:31.467Z,34.55
2023-01-26T14:19:09.633Z,64.63
2023-01-26T14:21:52.075Z,32.38
2023-01-26T14:24:48.397Z,33.17
2023-01-26T14:27:21.750Z,31.77
2023-01-26T14:29:50.446Z,36.15
2023-01-26T14:32:18.012Z,48.03
2023-01-26T14:34:54.115Z,33.83
2023-01-26T14:37:22.994Z,35.67
2023-01-26T14:40:09.716Z,36.05
2023-01-26T14:45:33.273Z,32.72
2023-01-26T14:48:07.891Z,38.15
2023-01-26T14:50:37.729Z,40.17
2023-01-26T14:53:13.275Z,39.22
2023-01-26T14:55:44.257Z,39.60
2023-01-26T14:58:21.441Z,43.33
2023-01-26T15:00:50.285Z,39.63
2023-01-26T15:03:37.186Z,41.63
2023-01-26T15:06:17.948Z,38.67
2023-01-26T15:09:04.526Z,41.88
2023-01-26T15:11:58.851Z,42.63
2023-01-26T15:14:35.689Z,41.15
2023-01-26T15:17:04.260Z,41.47
2023-01-26T15:19:39.712Z,49.47
2023-01-26T15:22:22.184Z,49.25
2023-01-26T15:25:29.045Z,49.20
2023-01-26T15:27:59.276Z,53.13
2023-01-26T15:30:33.409Z,51.30
2023-01-26T15:33:02.483Z,53.72
2023-01-26T15:35:34.997Z,52.33
2023-01-26T15:38:11.672Z,54.25
2023-01-26T15:40:39.935Z,52.78
2023-01-26T15:43:15.147Z,55.13
2023-01-26T15:45:51.554Z,52.38
2023-01-26T15:48:19.634Z,54.55
2023-01-26T15:50:48.689Z,58.97
2023-01-26T15:53:20.142Z,53.50
2023-01-26T15:55:52.885Z,56.10
2023-01-26T15:58:20.528Z,62.08
2023-01-26T16:00:48.851Z,49.03
2023-01-26T16:03:19.241Z,57.92
2023-01-26T16:05:50.479Z,51.13
2023-01-26T16:08:18.962Z,52.30
2023-01-26T16:10:47.547Z,63.72
2023-01-26T16:13:18.155Z,60.95
2023-01-26T16:15:50.802Z,53.53
2023-01-26T16:18:18.809Z,49.15
2023-01-26T16:20:48.065Z,54.85
2023-01-26T16:23:24.809Z,54.60
2023-01-26T16:25:52.649Z,60.85
2023-01-26T16:28:20.951Z,55.38
2023-01-26T16:30:50.933Z,58.42
2023-01-26T16:33:21.620Z,69.78
2023-01-26T16:35:49.245Z,65.75
2023-01-26T16:38:17.163Z,71.28
2023-01-26T16:40:47.347Z,75.45
2023-01-26T16:43:21.447Z,68.40
2023-01-26T16:45:52.227Z,77.82
2023-01-26T16:48:20.486Z,79.40
2023-01-26T16:50:52.258Z,78.75
2023-01-26T16:53:30.586Z,80.07
2023-01-26T16:55:58.117Z,86.05
2023-01-26T16:58:30.566Z,91.32
2023-01-26T17:00:58.282Z,89.47
2023-01-26T17:03:25.883Z,108.72
2023-01-26T17:05:56.075Z,108.78
2023-01-26T17:08:23.664Z,90.07
2023-01-26T17:11:01.601Z,98.22
2023-01-26T17:13:31.433Z,105.75
2023-01-26T17:16:00.110Z,106.15
2023-01-26T17:18:27.656Z,147.93
2023-01-26T17:21:02.169Z,141.93
2023-01-26T17:23:31.492Z,138.60
2023-01-26T17:26:00.646Z,131.40
2023-01-26T17:28:28.130Z,136.73
2023-01-26T17:30:59.367Z,144.13
2023-01-26T17:33:29.218Z,131.43
2023-01-26T17:36:04.151Z,126.80
2023-01-26T17:38:34.048Z,122.35
2023-01-26T17:41:02.085Z,107.22
2023-01-26T17:43:30.269Z,115.72
2023-01-26T17:46:10.226Z,115.43
2023-01-26T17:48:38.689Z,139.85
2023-01-26T17:51:08.382Z,132.88
2023-01-26T17:53:40.872Z,121.38
2023-01-26T17:56:10.987Z,126.63
2023-01-26T17:58:39.238Z,127.55
2023-01-26T18:01:08.573Z,133.43
2023-01-26T18:03:41.032Z,144.20
2023-01-26T18:06:09.784Z,143.68
2023-01-26T18:08:38.544Z,140.07
2023-01-26T18:11:09.868Z,148.33
2023-01-26T18:13:39.430Z,156.95
2023-01-26T18:16:08.212Z,150.60
2023-01-26T18:18:36.325Z,160.02
2023-01-26T18:21:14.339Z,152.07
2023-01-26T18:23:45.022Z,145.85
2023-01-26T18:26:13.832Z,155.65
2023-01-26T18:28:42.208Z,154.18
2023-01-26T18:31:30.906Z,149.95
2023-01-26T18:34:00.201Z,149.10
2023-01-26T18:36:29.158Z,151.73
2023-01-26T18:38:59.828Z,139.95
2023-01-26T18:41:31.236Z,143.88
2023-01-26T18:44:00.889Z,142.38
2023-01-26T18:46:31.026Z,146.32
2023-01-26T18:49:03.120Z,150.15
2023-01-26T18:51:35.596Z,155.02
2023-01-26T18:54:04.373Z,137.45
2023-01-26T18:56:34.070Z,149.55
2023-01-26T18:59:01.567Z,143.80
2023-01-26T19:01:29.445Z,149.20
2023-01-26T19:03:58.692Z,131.25
2023-01-26T19:09:01.078Z,142.57
2023-01-26T19:11:31.456Z,143.05
2023-01-26T19:14:00.021Z,143.07
2023-01-26T19:16:28.953Z,138.10
2023-01-26T19:18:56.744Z,205.00
2023-01-26T19:21:25.917Z,200.68
2023-01-26T19:23:56.190Z,228.57
2023-01-26T19:26:26.326Z,216.88
2023-01-26T19:28:54.679Z,199.80
2023-01-26T19:31:23.325Z,218.40
2023-01-26T19:33:56.549Z,203.80
2023-01-26T19:36:25.137Z,227.45
2023-01-26T19:38:52.890Z,222.77
2023-01-26T19:41:22.060Z,216.55
2023-01-26T19:43:50.545Z,221.07
2023-01-26T19:46:18.629Z,201.32
2023-01-26T19:48:46.834Z,203.38
2023-01-26T19:51:16.991Z,187.85
2023-01-26T19:53:47.459Z,175.30
2023-01-26T19:56:29.779Z,182.93
2023-01-26T19:59:00.035Z,186.43
2023-01-26T20:01:29.550Z,171.68
2023-01-26T20:04:00.796Z,173.63
2023-01-26T20:06:32.229Z,169.00
2023-01-26T20:09:00.848Z,175.70
2023-01-26T20:11:29.808Z,165.68
2023-01-26T20:14:00.029Z,162.93
2023-01-26T20:16:29.137Z,161.18
2023-01-26T20:18:57.833Z,152.73
2023-01-26T20:21:25.559Z,159.82
2023-01-26T20:23:55.159Z,145.35
2023-01-26T20:26:24.868Z,153.40
2023-01-26T20:28:56.873Z,146.38
2023-01-26T20:31:26.316Z,141.82
2023-01-26T20:33:55.394Z,135.07
2023-01-26T20:36:26.342Z,132.13
2023-01-26T20:38:54.298Z,127.97
2023-01-26T20:41:25.950Z,115.57
2023-01-26T20:44:00.816Z,120.40
2023-01-26T20:46:36.860Z,113.75
2023-01-26T20:49:08.802Z,134.77
2023-01-26T20:51:38.319Z,140.88
2023-01-26T20:56:35.612Z,146.35
2023-01-26T20:59:04.488Z,143.90
2023-01-26T21:01:36.610Z,145.57
2023-01-26T21:04:05.709Z,120.53
2023-01-26T21:09:02.166Z,124.40
2023-01-26T21:11:31.490Z,114.05
2023-01-26T21:14:01.790Z,129.75
2023-01-26T21:16:31.547Z,137.45
2023-01-26T21:21:27.141Z,117.40
2023-01-26T21:23:54.714Z,125.45
2023-01-26T21:26:24.524Z,134.43
2023-01-26T21:28:54.177Z,125.15
2023-01-26T21:31:25.100Z,126.57
2023-01-26T21:33:53.559Z,139.88
2023-01-26T21:36:23.786Z,142.80
2023-01-26T21:38:52.707Z,129.07
2023-01-26T21:41:44.396Z,142.25
2023-01-26T21:44:14.663Z,123.35
2023-01-26T21:46:44.991Z,136.18
2023-01-26T21:49:13.652Z,131.70
2023-01-26T21:52:02.627Z,134.48
2023-01-26T21:54:30.669Z,91.13
2023-01-26T21:56:59.206Z,109.35
2023-01-26T21:59:26.860Z,108.63
2023-01-26T22:01:56.676Z,114.80
2023-01-26T22:06:52.398Z,104.72
2023-01-26T22:09:21.454Z,103.63
2023-01-26T22:16:09.191Z,95.25
2023-01-26T22:18:37.037Z,104.80
2023-01-26T22:21:04.948Z,123.45
2023-01-26T22:23:37.742Z,119.38
2023-01-26T22:26:23.893Z,119.13
2023-01-26T22:28:53.621Z,107.63
2023-01-26T22:31:23.605Z,100.53
2023-01-26T22:33:51.494Z,94.55
2023-01-26T22:36:19.766Z,91.97
2023-01-26T22:38:47.870Z,91.57
2023-01-26T22:41:21.245Z,79.30
2023-01-26T22:43:54.340Z,91.82
2023-01-26T22:46:23.601Z,100.43
2023-01-26T22:48:51.864Z,108.00
2023-01-26T22:51:22.271Z,90.97
2023-01-26T22:53:51.726Z,77.82
2023-01-26T22:56:19.820Z,65.13
2023-01-26T22:59:00.423Z,63.30
2023-01-26T23:01:30.552Z,54.88
2023-01-26T23:03:58.881Z,56.42
2023-01-26T23:06:27.129Z,53.05
2023-01-26T23:08:55.517Z,56.20
2023-01-26T23:11:26.289Z,57.38
2023-01-26T23:13:55.796Z,58.05
2023-01-26T23:16:25.097Z,66.75
2023-01-26T23:18:54.997Z,64.93
2023-01-26T23:21:23.481Z,51.90
2023-01-26T23:23:51.740Z,49.90
2023-01-26T23:26:20.530Z,45.25
2023-01-26T23:28:48.023Z,45.45
2023-01-26T23:31:16.956Z,48.53
2023-01-26T23:33:44.660Z,63.80
2023-01-26T23:36:13.949Z,53.47
2023-01-26T23:38:41.997Z,62.85
2023-01-26T23:41:09.595Z,64.82
2023-01-26T23:43:37.154Z,74.82
2023-01-26T23:46:06.781Z,68.88
2023-01-26T23:48:34.852Z,71.28
2023-01-26T23:51:05.233Z,65.45
2023-01-26T23:53:33.253Z,76.68
2023-01-26T23:56:05.224Z,73.65
2023-01-26T23:58:33.027Z,83.88
